Time;durP1;ratioP1;P1;durP2;ratioP2;P2;SDS_P1;SDS_P2;PMS_P1;PMS_P2;Temp;Humidity;BMP_temperature;BMP_pressure;BME280_temperature;BME280_humidity;BME280_pressure;Samples;Min_cycle;Max_cycle;Signal;HPM_P1;HPM_P2
2021/01/28 00:00:29;;;;;;;5.67;5.17;;;1.20;1.40;;;1.72;100.00;95046.03;641070;221;24515;-72
2021/01/28 00:02:58;;;;;;;6.00;4.80;;;1.10;1.40;;;1.69;100.00;95046.12;640304;220;24517;-72
2021/01/28 00:05:28;;;;;;;5.73;5.23;;;1.10;1.40;;;1.73;100.00;95049.56;642304;220;25078;-72
2021/01/28 00:07:57;;;;;;;6.47;5.87;;;1.20;1.40;;;1.69;100.00;95054.08;634871;220;31970;-72
2021/01/28 00:10:26;;;;;;;5.60;5.10;;;1.20;1.40;;;1.69;100.00;95052.64;650439;219;23756;-72
2021/01/28 00:15:31;;;;;;;5.97;5.40;;;1.20;1.40;;;1.67;100.00;95049.28;646834;212;31695;-72
2021/01/28 00:18:00;;;;;;;5.37;4.87;;;1.20;1.40;;;1.66;100.00;95049.33;639146;221;23585;-73
2021/01/28 00:20:31;;;;;;;4.53;4.13;;;1.20;1.40;;;1.73;100.00;95043.84;639041;220;24520;-73
2021/01/28 00:23:00;;;;;;;5.10;4.03;;;1.20;1.40;;;1.71;100.00;95040.78;639260;221;32149;-72
2021/01/28 00:25:29;;;;;;;5.07;4.57;;;1.10;1.40;;;1.73;100.00;95040.42;655847;216;24466;-72
2021/01/28 00:27:58;;;;;;;6.53;4.67;;;1.20;1.40;;;1.73;100.00;95037.11;669630;211;25580;-73
2021/01/28 00:30:30;;;;;;;5.60;5.03;;;1.20;1.40;;;1.78;100.00;95033.08;670302;211;25457;-71
2021/01/28 00:32:59;;;;;;;5.03;4.60;;;1.20;1.40;;;1.79;100.00;95031.48;670489;211;24617;-71
2021/01/28 00:35:30;;;;;;;4.57;4.13;;;1.20;1.40;;;1.81;100.00;95031.97;668833;211;24517;-71
2021/01/28 00:37:59;;;;;;;5.07;4.67;;;1.20;1.40;;;1.79;100.00;95026.98;654593;216;24488;-71
2021/01/28 00:40:29;;;;;;;5.50;5.00;;;1.20;1.40;;;1.77;100.00;95017.25;647101;216;42240;-71
2021/01/28 00:42:58;;;;;;;5.70;5.20;;;1.20;1.40;;;1.78;100.00;95010.90;663455;211;31744;-71
2021/01/28 00:45:27;;;;;;;5.75;5.25;;;1.20;1.40;;;1.75;100.00;95014.03;663667;211;31388;-72
2021/01/28 00:47:56;;;;;;;4.90;4.50;;;1.20;1.40;;;1.78;100.00;95020.67;669213;211;23423;-71
2021/01/28 00:52:51;;;;;;;5.90;5.30;;;1.30;1.40;;;1.75;100.00;95021.46;647470;212;31598;-72
2021/01/28 00:55:20;;;;;;;5.50;4.90;;;1.20;1.40;;;1.76;100.00;95013.72;641434;221;23971;-73
2021/01/28 00:57:49;;;;;;;4.80;4.40;;;1.30;1.40;;;1.83;100.00;95014.13;641529;221;24549;-72
2021/01/28 01:00:28;;;;;;;5.13;4.63;;;1.30;1.40;;;1.81;100.00;95010.75;642212;221;24502;-72
2021/01/28 01:02:58;;;;;;;5.33;4.80;;;1.30;1.40;;;1.81;100.00;95011.28;640731;220;24504;-72
2021/01/28 01:05:27;;;;;;;5.70;4.60;;;1.30;1.40;;;1.79;100.00;95012.29;655917;216;24869;-73
2021/01/28 01:07:56;;;;;;;5.67;4.97;;;1.30;1.40;;;1.82;100.00;95012.09;654298;216;24486;-72
2021/01/28 01:10:52;;;;;;;6.17;5.50;;;1.30;1.40;;;1.81;100.00;95009.95;667427;211;24418;-73
2021/01/28 01:13:22;;;;;;;4.50;4.10;;;1.30;1.40;;;1.77;100.00;95009.08;668867;211;24429;-72
2021/01/28 01:15:51;;;;;;;5.03;4.53;;;1.20;1.40;;;1.76;100.00;95013.55;669348;211;24446;-72
2021/01/28 01:18:21;;;;;;;5.63;4.40;;;1.30;1.40;;;1.74;100.00;95011.46;641890;220;25539;-73
2021/01/28 01:20:51;;;;;;;5.18;4.68;;;1.30;1.40;;;1.76;100.00;95010.78;663729;211;31486;-72
2021/01/28 01:23:20;;;;;;;4.77;4.37;;;1.30;1.40;;;1.76;100.00;95011.80;655986;216;23521;-73
2021/01/28 01:25:49;;;;;;;4.53;4.10;;;1.20;1.40;;;1.78;100.00;95019.50;654012;216;24485;-72
2021/01/28 01:28:18;;;;;;;4.20;3.80;;;1.30;1.40;;;1.77;100.00;95014.31;662341;211;31546;-73
2021/01/28 01:30:47;;;;;;;4.37;4.07;;;1.30;1.40;;;1.75;100.00;95008.20;669017;211;23426;-73
2021/01/28 01:33:17;;;;;;;4.03;3.72;;;1.30;1.40;;;1.80;100.00;95008.66;664410;211;31943;-72
2021/01/28 01:35:46;;;;;;;4.53;4.12;;;1.30;1.40;;;1.83;100.00;95010.92;665269;211;31443;-73
2021/01/28 01:38:15;;;;;;;3.57;3.27;;;1.40;1.40;;;1.82;100.00;95013.21;668719;211;23426;-73
2021/01/28 01:40:44;;;;;;;4.20;3.80;;;1.40;1.40;;;1.85;100.00;95008.89;641219;221;24705;-72
2021/01/28 01:43:13;;;;;;;3.47;3.17;;;1.40;1.40;;;1.81;100.00;95011.02;640741;220;26729;-73
2021/01/28 01:45:44;;;;;;;3.85;3.55;;;1.40;1.40;;;1.87;100.00;95013.27;650204;216;31764;-73
2021/01/28 01:48:17;;;;;;;3.93;3.63;;;1.40;1.40;;;1.87;100.00;95009.52;654530;215;23469;-73
2021/01/28 01:50:54;;;;;;;3.10;2.90;;;1.40;1.40;;;1.88;100.00;95007.66;655021;215;24444;-73
2021/01/28 01:53:26;;;;;;;3.60;3.30;;;1.40;1.40;;;1.94;100.00;95010.19;656034;215;29745;-73
2021/01/28 01:56:23;;;;;;;3.37;3.07;;;1.40;1.40;;;1.95;100.00;95008.75;640765;222;24530;-73
2021/01/28 01:59:06;;;;;;;3.78;3.47;;;1.40;1.40;;;1.94;100.00;95006.77;646545;216;31715;-71
2021/01/28 02:01:36;;;;;;;3.60;3.27;;;1.40;1.40;;;1.94;100.00;95007.30;642073;220;25618;-71
2021/01/28 02:04:05;;;;;;;3.77;3.47;;;1.50;1.40;;;1.95;100.00;95007.04;641232;221;24523;-72
2021/01/28 02:06:40;;;;;;;3.60;3.30;;;1.40;1.40;;;1.93;100.00;95000.56;640628;221;24604;-72
2021/01/28 02:09:09;;;;;;;2.90;2.70;;;1.40;1.40;;;1.91;100.00;95001.73;641394;221;24539;-72
2021/01/28 02:11:38;;;;;;;3.73;3.43;;;1.40;1.40;;;1.98;100.00;94994.86;640718;221;24551;-72
2021/01/28 02:14:07;;;;;;;3.03;2.83;;;1.40;1.40;;;2.00;100.00;94988.34;639318;221;24826;-72
2021/01/28 02:16:37;;;;;;;3.33;3.10;;;1.40;1.40;;;1.96;100.00;94993.14;641023;220;24729;-72
2021/01/28 02:19:07;;;;;;;3.67;3.37;;;1.40;1.40;;;1.99;100.00;94989.30;640173;220;24522;-72
2021/01/28 02:21:36;;;;;;;4.10;3.80;;;1.40;1.40;;;1.97;100.00;94992.19;640752;221;24775;-73
2021/01/28 02:24:16;;;;;;;3.37;3.07;;;1.40;1.40;;;2.01;100.00;94990.22;640490;220;24511;-72
2021/01/28 02:26:45;;;;;;;3.40;3.10;;;1.40;1.40;;;2.06;100.00;94984.02;655251;216;25503;-72
2021/01/28 02:29:14;;;;;;;3.17;2.87;;;1.40;1.40;;;2.04;100.00;94986.17;640519;221;24512;-73
2021/01/28 02:31:43;;;;;;;4.20;3.80;;;1.40;1.40;;;2.07;100.00;94982.20;670680;211;30815;-73
2021/01/28 02:34:12;;;;;;;3.53;3.23;;;1.40;1.40;;;2.05;100.00;94983.95;655218;216;24499;-73
2021/01/28 02:36:44;;;;;;;3.90;3.50;;;1.40;1.40;;;2.07;100.00;94984.77;663721;211;31434;-72
2021/01/28 02:39:12;;;;;;;3.87;3.57;;;1.40;1.40;;;2.15;100.00;94981.31;668764;211;23459;-73
2021/01/28 02:41:41;;;;;;;2.87;2.67;;;1.50;1.40;;;2.19;100.00;94982.34;670645;211;24458;-73
2021/01/28 02:44:10;;;;;;;3.57;3.37;;;1.50;1.40;;;2.14;100.00;94979.22;660232;211;24493;-72
2021/01/28 02:46:39;;;;;;;3.30;3.10;;;1.50;1.40;;;2.15;100.00;94977.63;656571;215;26629;-72
2021/01/28 02:49:08;;;;;;;3.83;3.53;;;1.40;1.40;;;2.12;100.00;94976.66;656382;216;24511;-73
2021/01/28 02:51:37;;;;;;;4.00;3.70;;;1.50;1.40;;;2.15;100.00;94978.75;655194;215;24550;-73
2021/01/28 02:54:06;;;;;;;3.30;3.03;;;1.50;1.40;;;2.09;100.00;94971.99;656096;215;24482;-73
2021/01/28 02:56:35;;;;;;;3.20;2.90;;;1.50;1.40;;;2.16;100.00;94968.05;657456;216;24684;-73
2021/01/28 02:59:04;;;;;;;3.00;2.80;;;1.50;1.40;;;2.19;100.00;94959.56;655418;215;29940;-73
2021/01/28 03:01:33;;;;;;;3.60;3.30;;;1.50;1.40;;;2.22;100.00;94956.84;649911;216;31602;-72
2021/01/28 03:04:03;;;;;;;3.90;3.45;;;1.50;1.40;;;2.20;100.00;94950.79;650657;215;31563;-73
2021/01/28 03:06:32;;;;;;;3.33;3.03;;;1.50;1.40;;;2.21;100.00;94945.34;657595;215;23474;-73
2021/01/28 03:09:01;;;;;;;3.37;3.07;;;1.60;1.40;;;2.20;100.00;94942.28;656531;214;25518;-73
2021/01/28 03:11:30;;;;;;;3.10;2.87;;;1.60;1.40;;;2.23;100.00;94941.33;657926;215;24454;-73
2021/01/28 03:13:59;;;;;;;3.10;2.80;;;1.60;1.40;;;2.19;100.00;94942.55;630035;225;29977;-73
2021/01/28 03:16:28;;;;;;;3.10;2.90;;;1.50;1.40;;;2.25;100.00;94934.84;639809;222;24816;-73
2021/01/28 03:18:57;;;;;;;2.70;2.60;;;1.50;1.40;;;2.24;100.00;94926.22;641497;221;24525;-73
2021/01/28 03:21:26;;;;;;;3.67;3.37;;;1.50;1.40;;;2.28;100.00;94928.74;627346;225;31865;-74
2021/01/28 03:23:55;;;;;;;3.73;3.43;;;1.60;1.40;;;2.29;100.00;94923.23;641993;220;23449;-73
2021/01/28 03:26:24;;;;;;;3.37;3.07;;;1.60;1.40;;;2.27;100.00;94919.39;656442;215;24475;-73
2021/01/28 03:28:53;;;;;;;3.00;2.80;;;1.60;1.40;;;2.28;100.00;94916.61;655827;215;24480;-73
2021/01/28 03:31:22;;;;;;;3.40;3.10;;;1.50;1.40;;;2.25;100.00;94916.28;641022;220;24603;-73
2021/01/28 03:33:51;;;;;;;2.53;2.33;;;1.50;1.40;;;2.23;100.00;94921.76;656197;215;24473;-73
2021/01/28 03:36:21;;;;;;;3.37;3.07;;;1.60;1.40;;;2.28;100.00;94917.19;656342;215;24500;-73
2021/01/28 03:38:50;;;;;;;3.00;2.77;;;1.60;1.40;;;2.28;100.00;94921.90;654702;215;24498;-73
2021/01/28 03:41:19;;;;;;;3.43;3.07;;;1.60;1.40;;;2.23;100.00;94925.80;656054;215;24436;-73
2021/01/28 03:43:48;;;;;;;3.10;2.80;;;1.60;1.40;;;2.18;100.00;94920.30;657777;215;25499;-73
2021/01/28 03:46:17;;;;;;;3.15;2.85;;;1.60;1.40;;;2.19;100.00;94918.17;634587;220;31778;-72
2021/01/28 03:51:26;;;;;;;3.00;2.80;;;1.70;1.40;;;2.24;100.00;94910.13;620620;226;32439;-72
2021/01/28 03:53:55;;;;;;;3.13;2.93;;;1.70;1.40;;;2.25;100.00;94906.28;616377;229;24695;-71
2021/01/28 03:56:25;;;;;;;4.62;3.30;;;1.70;1.40;;;2.26;100.00;94904.89;610542;230;43328;-71
2021/01/28 03:58:54;;;;;;;4.00;3.58;;;1.70;1.40;;;2.28;100.00;94907.83;610925;230;32191;-72
2021/01/28 04:01:23;;;;;;;3.67;3.33;;;1.70;1.40;;;2.28;100.00;94903.55;615881;230;23542;-71
2021/01/28 04:03:52;;;;;;;3.50;3.20;;;1.70;1.40;;;2.34;100.00;94898.42;617629;230;24580;-71
2021/01/28 04:06:21;;;;;;;3.40;3.10;;;1.70;1.40;;;2.31;100.00;94895.05;617294;229;24884;-71
2021/01/28 04:08:50;;;;;;;3.87;3.50;;;1.60;1.40;;;2.34;100.00;94888.85;615045;230;24610;-71
2021/01/28 04:11:19;;;;;;;4.07;3.67;;;1.60;1.40;;;2.29;100.00;94883.12;610034;230;32085;-72
2021/01/28 04:13:48;;;;;;;4.33;3.23;;;1.60;1.40;;;2.25;100.00;94882.59;615597;230;23558;-72
2021/01/28 04:16:17;;;;;;;3.57;3.27;;;1.70;1.40;;;2.31;100.00;94876.28;614994;230;24592;-73
2021/01/28 04:18:46;;;;;;;3.07;2.83;;;1.60;1.40;;;2.29;100.00;94877.62;615072;230;32071;-73
2021/01/28 04:21:15;;;;;;;3.30;3.00;;;1.60;1.40;;;2.25;100.00;94879.06;615323;229;28896;-72
2021/01/28 04:23:44;;;;;;;3.23;2.93;;;1.60;1.40;;;2.23;100.00;94876.25;615213;229;24734;-71
2021/01/28 04:26:14;;;;;;;3.10;2.80;;;1.60;1.40;;;2.13;100.00;94869.50;616424;230;24610;-71
2021/01/28 04:28:43;;;;;;;3.33;3.00;;;1.60;1.40;;;2.17;100.00;94873.52;614980;229;24629;-72
2021/01/28 04:31:12;;;;;;;3.50;3.20;;;1.60;1.40;;;2.15;100.00;94874.16;614972;230;24631;-71
2021/01/28 04:33:41;;;;;;;4.32;3.90;;;1.60;1.40;;;2.14;100.00;94867.36;617732;226;32024;-72
2021/01/28 04:36:10;;;;;;;3.40;3.10;;;1.60;1.40;;;2.12;100.00;94867.79;622258;229;23487;-71
2021/01/28 04:38:39;;;;;;;4.35;3.95;;;1.60;1.40;;;2.08;100.00;94863.03;618366;227;32069;-71
2021/01/28 04:41:12;;;;;;;3.60;3.30;;;1.60;1.40;;;2.18;100.00;94857.48;616469;229;23537;-71
2021/01/28 04:43:41;;;;;;;4.73;3.53;;;1.60;1.40;;;2.17;100.00;94839.30;603819;234;24629;-72
2021/01/28 04:46:10;;;;;;;3.50;3.20;;;1.60;1.40;;;2.14;100.00;94831.70;604470;233;24653;-71
2021/01/28 04:48:39;;;;;;;4.55;4.15;;;1.60;1.40;;;2.26;100.00;94835.42;610561;229;32517;-71
2021/01/28 04:51:08;;;;;;;3.50;3.20;;;1.60;1.40;;;2.18;100.00;94823.09;616630;229;23527;-72
2021/01/28 04:53:57;;;;;;;4.30;3.90;;;1.60;1.40;;;2.29;100.00;94821.56;610828;230;32149;-72
2021/01/28 04:56:26;;;;;;;4.97;4.47;;;1.60;1.40;;;2.21;100.00;94809.98;604431;234;23567;-71
2021/01/28 04:58:58;;;;;;;3.10;2.80;;;1.60;1.40;;;2.23;100.00;94791.00;616642;230;24614;-71
2021/01/28 05:01:30;;;;;;;2.90;2.70;;;1.60;1.40;;;2.18;100.00;94778.77;614007;228;33238;-71
2021/01/28 05:04:00;;;;;;;3.60;3.00;;;1.60;1.40;;;2.18;100.00;94774.05;610902;233;24635;-72
2021/01/28 05:06:29;;;;;;;2.83;2.63;;;1.60;1.40;;;2.21;100.00;94767.95;617072;229;24805;-71
2021/01/28 05:08:58;;;;;;;3.30;3.00;;;1.60;1.40;;;2.22;100.00;94773.95;618241;229;26707;-71
2021/01/28 05:11:27;;;;;;;3.07;2.67;;;1.70;1.40;;;2.25;100.00;94770.92;614991;229;25759;-72
2021/01/28 05:13:56;;;;;;;2.53;2.33;;;1.70;1.40;;;2.25;100.00;94767.23;616331;230;25695;-72
2021/01/28 05:16:46;;;;;;;2.60;2.43;;;1.80;1.40;;;2.28;100.00;94764.18;602485;234;24652;-71
2021/01/28 05:19:40;;;;;;;2.90;2.70;;;1.70;1.40;;;2.19;100.00;94761.48;603464;234;25706;-72
2021/01/28 05:22:16;;;;;;;3.70;3.40;;;1.70;1.40;;;2.20;100.00;94748.02;605044;234;32331;-72
2021/01/28 05:24:46;;;;;;;4.00;3.50;;;1.70;1.40;;;2.20;100.00;94744.38;611234;230;34371;-71
2021/01/28 05:27:18;;;;;;;4.20;3.80;;;1.70;1.40;;;2.23;100.00;94739.96;611311;229;32435;-74
2021/01/28 05:29:47;;;;;;;2.97;2.77;;;1.70;1.40;;;2.22;100.00;94739.13;614209;229;23550;-72
2021/01/28 05:32:31;;;;;;;4.00;3.60;;;1.70;1.40;;;2.21;100.00;94730.16;610999;230;32083;-71
2021/01/28 05:36:06;;;;;;;5.35;4.60;;;1.60;1.40;;;2.20;100.00;94730.63;647990;216;31601;-71
2021/01/28 05:38:45;;;;;;;4.82;4.43;;;1.70;1.40;;;2.34;100.00;94731.87;646508;216;31571;-73
2021/01/28 05:41:34;;;;;;;4.37;4.07;;;1.70;1.40;;;2.27;100.00;94729.80;641762;221;23520;-72
2021/01/28 05:44:13;;;;;;;4.50;4.10;;;1.60;1.40;;;2.32;100.00;94725.50;637632;221;24522;-72
2021/01/28 05:46:42;;;;;;;4.80;4.40;;;1.60;1.40;;;2.33;100.00;94726.47;640765;221;24494;-71
2021/01/28 05:49:11;;;;;;;4.67;4.20;;;1.60;1.40;;;2.33;100.00;94724.75;640041;221;24522;-72
2021/01/28 05:51:41;;;;;;;4.73;3.83;;;1.60;1.40;;;2.25;100.00;94715.47;640796;221;24509;-72
2021/01/28 05:54:18;;;;;;;5.87;4.70;;;1.60;1.40;;;2.22;100.00;94700.09;641155;221;24940;-72
2021/01/28 05:56:51;;;;;;;7.17;4.73;;;1.60;1.40;;;2.25;100.00;94700.70;641711;220;24505;-73
2021/01/28 05:59:22;;;;;;;5.90;4.43;;;1.70;1.40;;;2.26;100.00;94701.83;638453;221;24526;-72
2021/01/28 06:02:08;;;;;;;4.57;4.13;;;1.70;1.40;;;2.25;100.00;94692.58;638664;220;24542;-72
2021/01/28 06:04:42;;;;;;;4.50;4.10;;;1.70;1.40;;;2.26;100.00;94692.25;638251;221;24781;-72
2021/01/28 06:07:17;;;;;;;4.13;3.70;;;1.70;1.40;;;2.28;100.00;94690.70;639156;221;24486;-73
2021/01/28 06:10:05;;;;;;;4.57;3.70;;;1.70;1.40;;;2.29;100.00;94694.44;640629;221;24494;-72
2021/01/28 06:13:02;;;;;;;5.70;5.20;;;1.70;1.40;;;2.33;100.00;94692.34;645781;216;31563;-72
2021/01/28 06:16:00;;;;;;;5.47;4.87;;;1.70;1.40;;;2.42;100.00;94690.73;645357;216;31587;-73
2021/01/28 06:18:46;;;;;;;5.40;4.90;;;1.80;1.40;;;2.40;100.00;94689.92;646349;219;23505;-73
2021/01/28 06:21:34;;;;;;;4.90;4.23;;;1.80;1.40;;;2.41;100.00;94684.83;646328;220;24578;-72
2021/01/28 06:24:21;;;;;;;5.20;4.70;;;1.80;1.40;;;2.46;100.00;94683.19;619143;226;32045;-72
2021/01/28 06:26:55;;;;;;;4.97;4.57;;;1.90;1.40;;;2.47;100.00;94676.17;616251;229;23549;-72
2021/01/28 06:29:48;;;;;;;5.03;3.83;;;1.90;1.40;;;2.46;100.00;94665.53;615886;230;24637;-72
2021/01/28 06:32:25;;;;;;;4.80;4.30;;;1.90;1.40;;;2.49;100.00;94666.00;615803;230;24602;-73
2021/01/28 06:35:01;;;;;;;5.43;4.78;;;1.80;1.40;;;2.58;100.00;94664.20;608468;230;32057;-73
2021/01/28 06:37:36;;;;;;;6.33;4.13;;;1.90;1.40;;;2.55;100.00;94659.23;615066;230;23527;-71
2021/01/28 06:40:06;;;;;;;4.00;3.67;;;1.80;1.40;;;2.50;100.00;94654.18;605756;230;26775;-72
2021/01/28 06:42:36;;;;;;;5.80;4.10;;;1.90;1.40;;;2.48;100.00;94660.77;606017;234;25697;-71
2021/01/28 06:47:59;;;;;;;6.25;5.20;;;1.80;1.40;;;2.44;100.00;94649.55;619433;222;31926;-73
2021/01/28 06:51:00;;;;;;;4.72;4.30;;;1.80;1.40;;;2.48;100.00;94648.94;645627;216;31606;-71
2021/01/28 06:53:43;;;;;;;7.28;5.55;;;1.80;1.40;;;2.49;100.00;94646.27;645742;212;31616;-74
2021/01/28 06:56:32;;;;;;;6.63;5.93;;;1.80;1.40;;;2.45;100.00;94644.09;640755;221;23505;-73
2021/01/28 06:59:23;;;;;;;9.70;7.60;;;1.80;1.40;;;2.48;100.00;94641.19;619768;226;42785;-71
2021/01/28 07:01:59;;;;;;;6.70;5.37;;;1.90;1.40;;;2.47;100.00;94633.48;616952;229;24637;-72
2021/01/28 07:04:36;;;;;;;8.03;4.77;;;1.90;1.40;;;2.48;100.00;94632.89;615500;230;24609;-73
2021/01/28 07:07:21;;;;;;;7.30;4.73;;;1.90;1.40;;;2.51;100.00;94631.86;613556;230;24593;-73
2021/01/28 07:10:10;;;;;;;5.40;3.70;;;1.90;1.40;;;2.51;100.00;94625.44;616519;230;24594;-73
2021/01/28 07:12:39;;;;;;;6.03;4.80;;;1.90;1.40;;;2.58;100.00;94625.36;614768;230;24602;-72
2021/01/28 07:15:09;;;;;;;5.77;3.87;;;1.90;1.40;;;2.64;100.00;94620.06;616239;230;24611;-73
2021/01/28 07:17:44;;;;;;;9.50;4.03;;;1.90;1.40;;;2.60;100.00;94613.09;615068;229;24602;-73
2021/01/28 07:20:32;;;;;;;6.40;4.27;;;1.90;1.40;;;2.61;100.00;94611.52;615070;230;25689;-73
2021/01/28 07:23:30;;;;;;;7.60;4.35;;;2.00;1.40;;;2.68;100.00;94613.30;645848;212;32480;-73
2021/01/28 07:26:15;;;;;;;9.13;4.80;;;2.00;1.40;;;2.73;100.00;94609.47;646738;216;32860;-72
2021/01/28 07:28:44;;;;;;;8.83;4.77;;;2.00;1.40;;;2.76;100.00;94603.35;635998;220;32378;-72
2021/01/28 07:31:19;;;;;;;6.90;4.10;;;2.00;1.40;;;2.85;100.00;94595.56;635315;221;31895;-72
2021/01/28 07:36:38;;;;;;;6.00;3.40;;;2.10;1.40;;;2.84;100.00;94597.17;619254;226;31930;-70
2021/01/28 07:39:13;;;;;;;6.22;4.60;;;2.10;1.40;;;3.02;100.00;94580.38;613984;228;33271;-71
2021/01/28 07:41:51;;;;;;;5.70;4.80;;;2.10;1.40;;;3.01;100.00;94577.55;626313;225;23522;-71
2021/01/28 07:44:40;;;;;;;5.03;3.93;;;2.00;1.40;;;3.03;100.00;94575.72;617040;229;25713;-71
2021/01/28 07:47:45;;;;;;;7.43;3.50;;;2.00;1.40;;;3.21;100.00;94577.38;615093;232;24642;-70
2021/01/28 07:50:31;;;;;;;5.18;2.80;;;2.10;1.40;;;3.07;100.00;94579.12;645228;216;31722;-73
2021/01/28 07:53:33;;;;;;;8.73;4.70;;;2.10;1.40;;;3.11;100.00;94572.34;638128;221;25894;-73
2021/01/28 07:56:43;;;;;;;4.40;3.00;;;2.20;1.40;;;3.24;100.00;94567.29;646302;216;31630;-71
2021/01/28 07:59:17;;;;;;;4.50;2.93;;;2.40;1.40;;;3.18;100.00;94572.37;641490;220;23492;-71
2021/01/28 08:01:46;;;;;;;7.73;3.90;;;2.50;1.40;;;3.23;100.00;94564.99;640687;221;24678;-71
2021/01/28 08:04:26;;;;;;;8.37;3.50;;;2.60;1.40;;;3.23;100.00;94555.02;640739;220;24484;-72
2021/01/28 08:06:56;;;;;;;4.00;1.30;;;2.60;1.40;;;3.30;100.00;94546.98;639326;221;24557;-72
2021/01/28 08:09:32;;;;;;;1.87;1.70;;;2.70;1.40;;;3.34;100.00;94550.70;638754;220;28877;-71
2021/01/28 08:12:01;;;;;;;3.53;1.37;;;2.80;1.40;;;3.38;100.00;94550.80;639615;221;24550;-71
2021/01/28 08:14:30;;;;;;;1.40;1.30;;;2.80;1.40;;;3.38;100.00;94543.73;640998;221;24505;-72
2021/01/28 08:16:59;;;;;;;1.57;1.00;;;2.80;1.40;;;3.40;100.00;94537.93;641439;220;24615;-72
2021/01/28 08:19:28;;;;;;;1.43;1.40;;;2.90;1.40;;;3.44;100.00;94538.59;639952;220;24589;-71
2021/01/28 08:22:06;;;;;;;1.37;1.27;;;2.90;1.40;;;3.50;100.00;94532.89;641103;221;24515;-72
2021/01/28 08:24:36;;;;;;;1.70;1.60;;;3.00;1.40;;;3.57;100.00;94527.02;648660;219;24489;-71
2021/01/28 08:27:15;;;;;;;1.40;1.07;;;3.00;1.40;;;3.58;100.00;94526.73;642791;220;24518;-71
2021/01/28 08:29:44;;;;;;;0.93;0.93;;;3.00;1.40;;;3.60;100.00;94519.38;653247;218;25543;-71
2021/01/28 08:32:20;;;;;;;1.93;0.70;;;3.00;1.40;;;3.65;100.00;94514.61;642037;220;25641;-71
2021/01/28 08:34:49;;;;;;;0.77;0.77;;;3.10;1.40;;;3.64;100.00;94509.20;668692;211;24714;-71
2021/01/28 08:37:18;;;;;;;1.13;1.00;;;3.10;1.40;;;3.69;100.00;94502.19;667424;211;25636;-72
2021/01/28 08:39:53;;;;;;;2.13;1.80;;;3.10;1.40;;;3.62;100.00;94502.95;666486;211;26307;-71
2021/01/28 08:42:22;;;;;;;1.40;1.30;;;3.00;1.40;;;3.58;100.00;94497.37;669937;211;24547;-72
2021/01/28 08:44:51;;;;;;;2.20;1.00;;;3.00;1.40;;;3.59;100.00;94492.59;664540;211;31446;-71
2021/01/28 08:47:21;;;;;;;0.80;0.60;;;3.10;1.40;;;3.65;100.00;94489.41;662696;211;31915;-71
2021/01/28 08:50:03;;;;;;;2.70;0.80;;;3.10;1.40;;;3.65;100.00;94491.23;634895;221;31883;-71
2021/01/28 08:52:32;;;;;;;1.13;1.00;;;3.10;1.40;;;3.65;100.00;94476.61;640732;220;23507;-71
2021/01/28 08:55:01;;;;;;;1.73;1.00;;;3.10;1.40;;;3.69;100.00;94475.81;642776;220;24529;-71
2021/01/28 08:57:30;;;;;;;1.20;1.20;;;3.10;1.40;;;3.77;100.00;94474.78;666520;211;24413;-71
2021/01/28 09:00:01;;;;;;;2.10;0.90;;;3.20;1.40;;;3.82;100.00;94470.50;649193;216;31528;-71
2021/01/28 09:02:32;;;;;;;1.30;1.20;;;3.20;1.40;;;3.82;100.00;94468.23;648670;216;31631;-71
2021/01/28 09:05:03;;;;;;;1.27;1.17;;;3.20;1.40;;;3.82;100.00;94463.73;668921;211;25551;-71
2021/01/28 09:07:42;;;;;;;2.40;1.20;;;3.20;1.40;;;3.84;100.00;94466.50;671437;210;24457;-71
2021/01/28 09:12:46;;;;;;;1.00;0.90;;;3.20;1.40;;;3.92;100.00;94465.03;645297;212;31570;-72
2021/01/28 09:15:24;;;;;;;2.80;1.43;;;3.30;1.40;;;3.91;100.00;94462.91;641723;220;23549;-73
2021/01/28 09:17:53;;;;;;;0.90;0.77;;;3.20;1.40;;;3.92;100.00;94462.83;636567;221;31880;-72
2021/01/28 09:20:27;;;;;;;0.80;0.70;;;3.20;1.40;;;3.97;100.00;94464.65;639905;220;23548;-72
2021/01/28 09:23:14;;;;;;;1.20;1.20;;;3.30;1.40;;;3.91;100.00;94456.09;642474;219;28898;-73
2021/01/28 09:25:43;;;;;;;0.87;0.87;;;3.30;1.40;;;3.89;100.00;94450.19;648606;220;24472;-73
2021/01/28 09:28:16;;;;;;;1.37;1.20;;;3.30;1.40;;;3.91;100.00;94459.05;668461;211;24409;-72
2021/01/28 09:30:45;;;;;;;1.00;1.00;;;3.20;1.40;;;3.88;100.00;94454.97;655141;216;24506;-73
2021/01/28 09:33:28;;;;;;;1.73;0.70;;;3.20;1.40;;;3.92;100.00;94456.35;646955;217;31559;-73
2021/01/28 09:36:07;;;;;;;1.23;0.80;;;3.20;1.40;;;3.87;100.00;94453.59;652340;217;24958;-73
2021/01/28 09:38:36;;;;;;;1.30;0.70;;;3.20;1.40;;;3.87;100.00;94456.16;663766;211;31341;-72
2021/01/28 09:41:08;;;;;;;1.70;1.60;;;3.20;1.40;;;3.88;100.00;94444.90;643019;220;23555;-72
2021/01/28 09:43:37;;;;;;;1.20;1.10;;;3.20;1.40;;;3.87;100.00;94437.09;663147;211;30884;-72
2021/01/28 09:46:10;;;;;;;1.10;1.10;;;3.20;1.40;;;3.87;100.00;94438.10;657476;215;24450;-72
2021/01/28 09:48:39;;;;;;;1.12;1.02;;;3.20;1.40;;;3.86;100.00;94430.92;650225;216;31651;-72
2021/01/28 09:51:08;;;;;;;1.67;1.57;;;3.20;1.40;;;3.92;100.00;94423.91;633811;224;23536;-72
2021/01/28 09:53:37;;;;;;;0.90;0.90;;;3.30;1.40;;;3.92;100.00;94423.05;641634;220;24589;-73
2021/01/28 09:56:07;;;;;;;1.53;1.43;;;3.30;1.40;;;3.91;100.00;94418.13;656618;215;24426;-72
2021/01/28 09:58:35;;;;;;;1.12;0.98;;;3.30;1.40;;;3.93;100.00;94406.14;648844;215;31667;-73
2021/01/28 10:01:05;;;;;;;1.30;1.20;;;3.30;1.40;;;3.99;100.00;94400.39;656244;216;23458;-72
2021/01/28 10:03:34;;;;;;;2.33;1.80;;;3.30;1.40;;;3.94;100.00;94395.56;632542;225;25698;-72
2021/01/28 10:06:03;;;;;;;1.37;1.03;;;3.30;1.40;;;3.98;100.00;94384.41;641423;220;25622;-73
2021/01/28 10:08:32;;;;;;;1.33;1.13;;;3.30;1.40;;;3.93;100.00;94374.45;639922;221;25754;-73
2021/01/28 10:11:02;;;;;;;1.20;1.10;;;3.30;1.40;;;4.00;100.00;94362.72;637203;220;31715;-73
2021/01/28 10:13:31;;;;;;;1.33;1.23;;;3.30;1.40;;;3.96;100.00;94360.95;653706;216;23494;-73
2021/01/28 10:16:00;;;;;;;1.67;1.27;;;3.30;1.40;;;3.99;100.00;94353.58;634237;225;25642;-73
2021/01/28 10:18:29;;;;;;;1.00;0.90;;;3.30;1.40;;;3.98;100.00;94349.67;655596;216;25766;-73
2021/01/28 10:20:58;;;;;;;1.20;1.10;;;3.30;1.40;;;4.03;100.00;94342.79;633659;225;25749;-73
2021/01/28 10:23:27;;;;;;;2.23;1.27;;;3.40;1.40;;;3.99;100.00;94336.68;643991;219;24522;-71
2021/01/28 10:25:56;;;;;;;0.77;0.60;;;3.40;1.40;;;4.03;100.00;94331.05;653095;215;31694;-72
2021/01/28 10:28:25;;;;;;;1.00;1.00;;;3.40;1.40;;;4.07;100.00;94320.42;656685;215;27700;-71
2021/01/28 10:30:54;;;;;;;1.83;1.70;;;3.40;1.40;;;4.08;100.00;94317.98;655768;215;24476;-72
2021/01/28 10:33:23;;;;;;;1.12;0.90;;;3.40;1.40;;;4.00;100.00;94307.43;650373;215;31593;-72
2021/01/28 10:35:52;;;;;;;1.27;1.20;;;3.30;1.40;;;3.98;100.00;94309.78;656441;215;24549;-72
2021/01/28 10:38:21;;;;;;;1.47;1.37;;;3.30;1.40;;;3.95;100.00;94296.95;634247;224;24586;-72
2021/01/28 10:40:52;;;;;;;0.98;0.57;;;3.30;1.40;;;3.98;100.00;94294.66;636797;220;31729;-72
2021/01/28 10:43:22;;;;;;;1.37;1.27;;;3.30;1.40;;;4.03;100.00;94290.66;655601;215;23438;-72
2021/01/28 10:45:51;;;;;;;1.30;1.20;;;3.30;1.40;;;4.06;100.00;94286.32;655357;215;24860;-73
2021/01/28 10:48:20;;;;;;;0.67;0.67;;;3.40;1.40;;;4.15;100.00;94283.20;656626;215;24418;-73
2021/01/28 10:50:49;;;;;;;0.93;0.93;;;3.40;1.40;;;4.14;100.00;94276.52;656130;215;24472;-72
2021/01/28 10:53:18;;;;;;;0.97;0.97;;;3.40;1.40;;;4.05;100.00;94271.59;656399;215;24603;-73
2021/01/28 10:55:47;;;;;;;1.70;1.60;;;3.40;1.40;;;4.12;100.00;94280.94;655163;215;24444;-72
2021/01/28 11:00:57;;;;;;;0.88;0.80;;;3.50;1.40;;;4.22;100.00;94276.69;646316;216;31493;-74
2021/01/28 11:03:26;;;;;;;1.30;1.30;;;3.60;1.40;;;4.28;100.00;94270.78;640992;221;25910;-75
2021/01/28 11:08:35;;;;;;;1.40;0.80;;;3.50;1.40;;;4.24;100.00;94259.22;647371;216;32041;-71
2021/01/28 11:11:04;;;;;;;1.10;1.00;;;3.60;1.40;;;4.22;100.00;94255.41;640228;220;23494;-71
2021/01/28 11:13:33;;;;;;;0.87;0.87;;;3.60;1.40;;;4.17;100.00;94234.67;641708;220;24518;-71
2021/01/28 11:16:02;;;;;;;1.30;1.20;;;3.50;1.40;;;4.12;100.00;94230.30;639592;221;24567;-72
2021/01/28 11:18:31;;;;;;;0.73;0.73;;;3.50;1.40;;;4.12;100.00;94227.42;640649;221;24620;-72